Terminal Aerodrome Forecast
Issued by NWS

Home | Current Version | Previous Version | Graphics & Text | Print | Product List | Glossary On
Versions: 1 2 3 4 5 6 7 8 9 10 11 12 13 14 15
960
FTUS43 KGRB 072044 AAA
TAFAUW
TAF AMD
KAUW 072044Z 0721/0818 24008G19KT P6SM OVC035
     FM072300 26007KT P6SM -SN BKN018
     FM080300 27009KT 5SM -SN BKN015
     FM080600 30010G15KT 3SM -SN BKN010
     FM081200 32012G22KT 3SM -SN BR OVC012=

USA.gov is the U.S. government's official web portal to all federal, state and local government web resources and services.